sensor_id;sensor_type;location;lat;lon;timestamp;P1;durP1;ratioP1;P2;durP2;ratioP2
33162;SDS011;29282;45.656;11.302;2023-04-25T00:02:08;6.40;;;1.77;;
33162;SDS011;29282;45.656;11.302;2023-04-25T00:04:34;4.45;;;1.95;;
33162;SDS011;29282;45.656;11.302;2023-04-25T00:07:00;2.40;;;1.88;;
33162;SDS011;29282;45.656;11.302;2023-04-25T00:09:28;3.78;;;2.00;;
33162;SDS011;29282;45.656;11.302;2023-04-25T00:11:54;5.63;;;2.10;;
33162;SDS011;29282;45.656;11.302;2023-04-25T00:14:20;3.60;;;2.17;;
33162;SDS011;29282;45.656;11.302;2023-04-25T00:16:45;3.67;;;1.80;;
33162;SDS011;29282;45.656;11.302;2023-04-25T00:19:11;4.28;;;1.60;;
33162;SDS011;29282;45.656;11.302;2023-04-25T00:21:38;2.95;;;1.70;;
33162;SDS011;29282;45.656;11.302;2023-04-25T00:24:05;2.38;;;1.67;;
33162;SDS011;29282;45.656;11.302;2023-04-25T00:26:33;3.90;;;1.70;;
33162;SDS011;29282;45.656;11.302;2023-04-25T00:28:58;2.22;;;1.63;;
33162;SDS011;29282;45.656;11.302;2023-04-25T00:31:24;2.72;;;1.50;;
33162;SDS011;29282;45.656;11.302;2023-04-25T00:33:49;2.33;;;1.60;;
33162;SDS011;29282;45.656;11.302;2023-04-25T00:36:15;2.15;;;1.70;;
33162;SDS011;29282;45.656;11.302;2023-04-25T00:38:42;2.45;;;1.60;;
33162;SDS011;29282;45.656;11.302;2023-04-25T00:41:07;3.63;;;1.98;;
33162;SDS011;29282;45.656;11.302;2023-04-25T00:43:33;3.97;;;1.58;;
33162;SDS011;29282;45.656;11.302;2023-04-25T00:46:01;1.60;;;1.30;;
33162;SDS011;29282;45.656;11.302;2023-04-25T00:48:26;1.92;;;1.40;;
33162;SDS011;29282;45.656;11.302;2023-04-25T00:50:53;2.00;;;1.73;;
33162;SDS011;29282;45.656;11.302;2023-04-25T00:53:24;2.20;;;1.50;;
33162;SDS011;29282;45.656;11.302;2023-04-25T00:55:51;3.42;;;1.65;;
33162;SDS011;29282;45.656;11.302;2023-04-25T00:58:18;3.40;;;1.75;;
33162;SDS011;29282;45.656;11.302;2023-04-25T01:00:45;3.58;;;1.67;;
33162;SDS011;29282;45.656;11.302;2023-04-25T01:03:12;3.20;;;1.73;;
33162;SDS011;29282;45.656;11.302;2023-04-25T01:05:38;3.25;;;1.55;;
33162;SDS011;29282;45.656;11.302;2023-04-25T01:08:06;2.47;;;1.73;;
33162;SDS011;29282;45.656;11.302;2023-04-25T01:10:32;2.67;;;1.65;;
33162;SDS011;29282;45.656;11.302;2023-04-25T01:12:57;2.03;;;1.52;;
33162;SDS011;29282;45.656;11.302;2023-04-25T01:15:23;2.55;;;1.60;;
33162;SDS011;29282;45.656;11.302;2023-04-25T01:17:49;2.78;;;1.90;;
33162;SDS011;29282;45.656;11.302;2023-04-25T01:20:14;4.05;;;1.60;;
33162;SDS011;29282;45.656;11.302;2023-04-25T01:22:40;1.98;;;1.30;;
33162;SDS011;29282;45.656;11.302;2023-04-25T01:25:07;3.72;;;1.75;;
33162;SDS011;29282;45.656;11.302;2023-04-25T01:27:33;3.00;;;1.52;;
33162;SDS011;29282;45.656;11.302;2023-04-25T01:30:00;2.30;;;1.50;;
33162;SDS011;29282;45.656;11.302;2023-04-25T01:32:26;2.33;;;1.50;;
33162;SDS011;29282;45.656;11.302;2023-04-25T01:34:52;3.20;;;1.50;;
33162;SDS011;29282;45.656;11.302;2023-04-25T01:37:17;2.42;;;1.60;;
33162;SDS011;29282;45.656;11.302;2023-04-25T01:39:43;3.67;;;1.50;;
33162;SDS011;29282;45.656;11.302;2023-04-25T01:42:09;2.08;;;1.60;;
33162;SDS011;29282;45.656;11.302;2023-04-25T01:44:34;2.83;;;1.42;;
33162;SDS011;29282;45.656;11.302;2023-04-25T01:47:00;2.45;;;1.45;;
33162;SDS011;29282;45.656;11.302;2023-04-25T01:49:26;5.47;;;1.60;;
33162;SDS011;29282;45.656;11.302;2023-04-25T01:51:51;2.88;;;1.50;;
33162;SDS011;29282;45.656;11.302;2023-04-25T01:54:17;2.13;;;1.65;;
33162;SDS011;29282;45.656;11.302;2023-04-25T01:56:49;1.88;;;1.60;;
33162;SDS011;29282;45.656;11.302;2023-04-25T01:59:15;1.52;;;1.15;;
33162;SDS011;29282;45.656;11.302;2023-04-25T02:01:40;3.25;;;1.55;;
33162;SDS011;29282;45.656;11.302;2023-04-25T02:04:06;3.17;;;1.58;;
33162;SDS011;29282;45.656;11.302;2023-04-25T02:06:31;2.30;;;1.30;;
33162;SDS011;29282;45.656;11.302;2023-04-25T02:08:57;1.70;;;1.60;;
33162;SDS011;29282;45.656;11.302;2023-04-25T02:11:22;2.63;;;1.35;;
33162;SDS011;29282;45.656;11.302;2023-04-25T02:13:48;2.38;;;1.63;;
33162;SDS011;29282;45.656;11.302;2023-04-25T02:16:13;2.08;;;1.35;;
33162;SDS011;29282;45.656;11.302;2023-04-25T02:18:39;2.08;;;1.42;;
33162;SDS011;29282;45.656;11.302;2023-04-25T02:21:04;5.68;;;1.80;;
33162;SDS011;29282;45.656;11.302;2023-04-25T02:23:30;2.75;;;1.40;;
33162;SDS011;29282;45.656;11.302;2023-04-25T02:25:55;2.38;;;1.40;;
33162;SDS011;29282;45.656;11.302;2023-04-25T02:28:23;2.00;;;1.50;;
33162;SDS011;29282;45.656;11.302;2023-04-25T02:30:49;1.58;;;1.40;;
33162;SDS011;29282;45.656;11.302;2023-04-25T02:33:14;5.45;;;1.67;;
33162;SDS011;29282;45.656;11.302;2023-04-25T02:35:42;1.40;;;1.30;;
33162;SDS011;29282;45.656;11.302;2023-04-25T02:38:07;2.17;;;1.38;;
33162;SDS011;29282;45.656;11.302;2023-04-25T02:40:32;1.98;;;1.30;;
33162;SDS011;29282;45.656;11.302;2023-04-25T02:42:58;2.50;;;1.70;;
33162;SDS011;29282;45.656;11.302;2023-04-25T02:45:23;2.42;;;1.52;;
33162;SDS011;29282;45.656;11.302;2023-04-25T02:47:49;1.85;;;1.50;;
33162;SDS011;29282;45.656;11.302;2023-04-25T02:50:14;2.72;;;1.40;;
33162;SDS011;29282;45.656;11.302;2023-04-25T02:52:40;1.35;;;1.20;;
33162;SDS011;29282;45.656;11.302;2023-04-25T02:55:05;3.33;;;1.40;;
33162;SDS011;29282;45.656;11.302;2023-04-25T02:57:31;8.30;;;1.48;;
33162;SDS011;29282;45.656;11.302;2023-04-25T02:59:56;1.52;;;1.27;;
33162;SDS011;29282;45.656;11.302;2023-04-25T03:02:22;2.08;;;1.40;;
33162;SDS011;29282;45.656;11.302;2023-04-25T03:04:47;2.70;;;1.10;;
33162;SDS011;29282;45.656;11.302;2023-04-25T03:07:13;1.30;;;1.20;;
33162;SDS011;29282;45.656;11.302;2023-04-25T03:09:38;5.13;;;1.48;;
33162;SDS011;29282;45.656;11.302;2023-04-25T03:12:04;1.52;;;1.20;;
33162;SDS011;29282;45.656;11.302;2023-04-25T03:14:29;1.85;;;1.35;;
33162;SDS011;29282;45.656;11.302;2023-04-25T03:16:55;2.38;;;1.27;;
33162;SDS011;29282;45.656;11.302;2023-04-25T03:19:20;2.67;;;1.42;;
33162;SDS011;29282;45.656;11.302;2023-04-25T03:21:46;3.65;;;1.30;;
33162;SDS011;29282;45.656;11.302;2023-04-25T03:24:11;2.63;;;1.70;;
33162;SDS011;29282;45.656;11.302;2023-04-25T03:26:37;2.55;;;1.58;;
33162;SDS011;29282;45.656;11.302;2023-04-25T03:29:02;1.20;;;1.08;;
33162;SDS011;29282;45.656;11.302;2023-04-25T03:31:28;2.00;;;1.48;;
33162;SDS011;29282;45.656;11.302;2023-04-25T03:33:53;1.92;;;1.55;;
33162;SDS011;29282;45.656;11.302;2023-04-25T03:36:19;1.25;;;1.10;;
33162;SDS011;29282;45.656;11.302;2023-04-25T03:38:44;2.20;;;1.30;;
33162;SDS011;29282;45.656;11.302;2023-04-25T03:41:10;1.40;;;1.25;;
33162;SDS011;29282;45.656;11.302;2023-04-25T03:43:35;1.50;;;1.30;;
33162;SDS011;29282;45.656;11.302;2023-04-25T03:46:01;1.38;;;1.20;;
33162;SDS011;29282;45.656;11.302;2023-04-25T03:48:26;2.15;;;1.48;;
33162;SDS011;29282;45.656;11.302;2023-04-25T03:50:52;2.67;;;1.30;;
33162;SDS011;29282;45.656;11.302;2023-04-25T03:53:18;2.50;;;1.30;;
33162;SDS011;29282;45.656;11.302;2023-04-25T03:55:44;1.40;;;1.27;;
33162;SDS011;29282;45.656;11.302;2023-04-25T03:58:10;3.67;;;1.40;;
33162;SDS011;29282;45.656;11.302;2023-04-25T04:00:35;2.47;;;1.60;;
33162;SDS011;29282;45.656;11.302;2023-04-25T04:03:01;2.50;;;1.33;;
33162;SDS011;29282;45.656;11.302;2023-04-25T04:05:26;1.30;;;1.15;;
33162;SDS011;29282;45.656;11.302;2023-04-25T04:07:52;1.10;;;1.00;;
33162;SDS011;29282;45.656;11.302;2023-04-25T04:10:18;1.35;;;1.10;;
33162;SDS011;29282;45.656;11.302;2023-04-25T04:12:44;2.45;;;1.10;;
33162;SDS011;29282;45.656;11.302;2023-04-25T04:15:09;1.40;;;1.30;;
33162;SDS011;29282;45.656;11.302;2023-04-25T04:17:35;1.50;;;1.20;;
33162;SDS011;29282;45.656;11.302;2023-04-25T04:20:01;1.20;;;1.10;;
33162;SDS011;29282;45.656;11.302;2023-04-25T04:22:28;3.72;;;1.23;;
33162;SDS011;29282;45.656;11.302;2023-04-25T04:24:53;1.63;;;1.27;;
33162;SDS011;29282;45.656;11.302;2023-04-25T04:27:19;2.53;;;1.20;;
33162;SDS011;29282;45.656;11.302;2023-04-25T04:29:47;1.20;;;1.10;;
33162;SDS011;29282;45.656;11.302;2023-04-25T04:32:13;1.80;;;1.40;;
33162;SDS011;29282;45.656;11.302;2023-04-25T04:34:39;1.38;;;1.25;;
33162;SDS011;29282;45.656;11.302;2023-04-25T04:37:06;1.40;;;1.20;;
33162;SDS011;29282;45.656;11.302;2023-04-25T04:39:32;1.35;;;1.20;;
33162;SDS011;29282;45.656;11.302;2023-04-25T04:41:58;1.55;;;1.30;;
33162;SDS011;29282;45.656;11.302;2023-04-25T04:44:24;1.75;;;1.35;;
33162;SDS011;29282;45.656;11.302;2023-04-25T04:46:50;1.33;;;0.95;;
33162;SDS011;29282;45.656;11.302;2023-04-25T04:49:16;1.08;;;1.05;;
33162;SDS011;29282;45.656;11.302;2023-04-25T04:51:42;1.25;;;1.10;;
33162;SDS011;29282;45.656;11.302;2023-04-25T04:54:09;1.63;;;1.08;;
33162;SDS011;29282;45.656;11.302;2023-04-25T04:56:35;1.25;;;1.15;;
33162;SDS011;29282;45.656;11.302;2023-04-25T04:59:01;1.98;;;1.15;;
33162;SDS011;29282;45.656;11.302;2023-04-25T05:01:27;1.52;;;1.10;;
33162;SDS011;29282;45.656;11.302;2023-04-25T05:03:54;1.25;;;1.13;;
33162;SDS011;29282;45.656;11.302;2023-04-25T05:06:24;1.05;;;0.90;;
33162;SDS011;29282;45.656;11.302;2023-04-25T05:08:50;2.00;;;1.10;;
33162;SDS011;29282;45.656;11.302;2023-04-25T05:11:16;2.10;;;1.10;;
33162;SDS011;29282;45.656;11.302;2023-04-25T05:13:41;1.30;;;1.20;;
33162;SDS011;29282;45.656;11.302;2023-04-25T05:16:07;1.10;;;0.90;;
33162;SDS011;29282;45.656;11.302;2023-04-25T05:18:32;2.00;;;1.20;;
33162;SDS011;29282;45.656;11.302;2023-04-25T05:20:58;2.35;;;1.17;;
33162;SDS011;29282;45.656;11.302;2023-04-25T05:23:23;0.85;;;0.85;;
33162;SDS011;29282;45.656;11.302;2023-04-25T05:25:48;1.30;;;1.10;;
33162;SDS011;29282;45.656;11.302;2023-04-25T05:28:14;2.35;;;1.15;;
33162;SDS011;29282;45.656;11.302;2023-04-25T05:30:39;2.80;;;1.30;;
33162;SDS011;29282;45.656;11.302;2023-04-25T05:33:05;1.20;;;1.05;;
33162;SDS011;29282;45.656;11.302;2023-04-25T05:35:30;1.45;;;1.20;;
33162;SDS011;29282;45.656;11.302;2023-04-25T05:37:56;2.63;;;1.40;;
33162;SDS011;29282;45.656;11.302;2023-04-25T05:40:21;1.02;;;1.00;;
33162;SDS011;29282;45.656;11.302;2023-04-25T05:42:47;1.25;;;1.13;;
33162;SDS011;29282;45.656;11.302;2023-04-25T05:45:12;1.80;;;1.00;;
33162;SDS011;29282;45.656;11.302;2023-04-25T05:47:38;1.63;;;0.88;;
33162;SDS011;29282;45.656;11.302;2023-04-25T05:50:04;1.17;;;1.08;;
33162;SDS011;29282;45.656;11.302;2023-04-25T05:52:29;1.77;;;1.10;;
33162;SDS011;29282;45.656;11.302;2023-04-25T05:54:55;1.75;;;0.77;;
33162;SDS011;29282;45.656;11.302;2023-04-25T05:57:22;1.20;;;1.08;;
33162;SDS011;29282;45.656;11.302;2023-04-25T05:59:50;1.80;;;1.30;;
33162;SDS011;29282;45.656;11.302;2023-04-25T06:02:16;1.42;;;0.88;;
33162;SDS011;29282;45.656;11.302;2023-04-25T06:04:42;2.65;;;1.20;;
33162;SDS011;29282;45.656;11.302;2023-04-25T06:07:08;2.00;;;1.00;;
33162;SDS011;29282;45.656;11.302;2023-04-25T06:09:34;1.88;;;1.10;;
33162;SDS011;29282;45.656;11.302;2023-04-25T06:11:59;1.67;;;1.15;;
33162;SDS011;29282;45.656;11.302;2023-04-25T06:14:25;1.05;;;0.95;;
33162;SDS011;29282;45.656;11.302;2023-04-25T06:16:50;1.52;;;1.20;;
33162;SDS011;29282;45.656;11.302;2023-04-25T06:19:16;1.30;;;1.10;;
33162;SDS011;29282;45.656;11.302;2023-04-25T06:21:42;1.95;;;1.25;;
33162;SDS011;29282;45.656;11.302;2023-04-25T06:24:09;1.42;;;1.15;;
33162;SDS011;29282;45.656;11.302;2023-04-25T06:26:34;3.17;;;1.20;;
33162;SDS011;29282;45.656;11.302;2023-04-25T06:29:00;1.38;;;1.20;;
33162;SDS011;29282;45.656;11.302;2023-04-25T06:31:25;1.77;;;1.35;;
33162;SDS011;29282;45.656;11.302;2023-04-25T06:33:51;7.00;;;1.60;;
33162;SDS011;29282;45.656;11.302;2023-04-25T06:36:19;4.47;;;1.30;;
33162;SDS011;29282;45.656;11.302;2023-04-25T06:38:50;1.50;;;1.15;;
33162;SDS011;29282;45.656;11.302;2023-04-25T06:41:16;2.00;;;1.15;;
33162;SDS011;29282;45.656;11.302;2023-04-25T06:43:42;2.88;;;1.38;;
33162;SDS011;29282;45.656;11.302;2023-04-25T06:46:07;1.52;;;1.05;;
33162;SDS011;29282;45.656;11.302;2023-04-25T06:48:33;2.83;;;1.30;;
33162;SDS011;29282;45.656;11.302;2023-04-25T06:50:58;2.70;;;1.52;;
33162;SDS011;29282;45.656;11.302;2023-04-25T06:53:24;2.80;;;1.40;;
33162;SDS011;29282;45.656;11.302;2023-04-25T06:55:49;4.20;;;1.65;;
33162;SDS011;29282;45.656;11.302;2023-04-25T06:58:15;4.85;;;1.70;;
33162;SDS011;29282;45.656;11.302;2023-04-25T07:00:40;2.38;;;1.30;;
33162;SDS011;29282;45.656;11.302;2023-04-25T07:03:06;3.58;;;1.40;;
33162;SDS011;29282;45.656;11.302;2023-04-25T07:05:31;2.03;;;1.33;;
33162;SDS011;29282;45.656;11.302;2023-04-25T07:07:57;2.28;;;1.38;;
33162;SDS011;29282;45.656;11.302;2023-04-25T07:10:22;7.00;;;1.52;;
33162;SDS011;29282;45.656;11.302;2023-04-25T07:12:48;3.22;;;1.27;;
33162;SDS011;29282;45.656;11.302;2023-04-25T07:15:13;3.25;;;1.60;;
33162;SDS011;29282;45.656;11.302;2023-04-25T07:17:38;2.47;;;1.52;;
33162;SDS011;29282;45.656;11.302;2023-04-25T07:20:04;2.55;;;1.55;;
33162;SDS011;29282;45.656;11.302;2023-04-25T07:22:31;3.15;;;1.35;;
33162;SDS011;29282;45.656;11.302;2023-04-25T07:24:57;2.67;;;1.50;;
33162;SDS011;29282;45.656;11.302;2023-04-25T07:27:22;3.35;;;1.40;;
33162;SDS011;29282;45.656;11.302;2023-04-25T07:29:48;2.47;;;1.40;;
33162;SDS011;29282;45.656;11.302;2023-04-25T07:32:13;2.92;;;1.67;;
33162;SDS011;29282;45.656;11.302;2023-04-25T07:34:39;5.07;;;1.70;;
33162;SDS011;29282;45.656;11.302;2023-04-25T07:37:05;2.10;;;1.30;;
33162;SDS011;29282;45.656;11.302;2023-04-25T07:39:31;3.88;;;1.67;;
33162;SDS011;29282;45.656;11.302;2023-04-25T07:41:56;7.78;;;1.73;;
33162;SDS011;29282;45.656;11.302;2023-04-25T07:44:23;4.88;;;1.40;;
33162;SDS011;29282;45.656;11.302;2023-04-25T07:46:50;4.57;;;1.42;;
33162;SDS011;29282;45.656;11.302;2023-04-25T07:49:16;4.53;;;1.45;;
33162;SDS011;29282;45.656;11.302;2023-04-25T07:51:41;3.50;;;1.75;;
33162;SDS011;29282;45.656;11.302;2023-04-25T07:54:09;5.47;;;1.88;;
33162;SDS011;29282;45.656;11.302;2023-04-25T07:56:34;6.57;;;1.50;;
33162;SDS011;29282;45.656;11.302;2023-04-25T07:59:00;6.05;;;1.77;;
33162;SDS011;29282;45.656;11.302;2023-04-25T08:01:26;4.15;;;1.60;;
33162;SDS011;29282;45.656;11.302;2023-04-25T08:03:52;5.88;;;2.00;;
33162;SDS011;29282;45.656;11.302;2023-04-25T08:06:18;12.75;;;2.38;;
33162;SDS011;29282;45.656;11.302;2023-04-25T08:08:43;6.82;;;1.70;;
33162;SDS011;29282;45.656;11.302;2023-04-25T08:11:09;3.17;;;1.70;;
33162;SDS011;29282;45.656;11.302;2023-04-25T08:13:36;5.20;;;1.90;;
33162;SDS011;29282;45.656;11.302;2023-04-25T08:16:02;4.57;;;2.00;;
33162;SDS011;29282;45.656;11.302;2023-04-25T08:18:27;8.05;;;2.00;;
33162;SDS011;29282;45.656;11.302;2023-04-25T08:20:53;6.20;;;2.05;;
33162;SDS011;29282;45.656;11.302;2023-04-25T08:23:18;5.40;;;1.75;;
33162;SDS011;29282;45.656;11.302;2023-04-25T08:25:44;4.50;;;1.95;;
33162;SDS011;29282;45.656;11.302;2023-04-25T08:28:09;7.78;;;1.92;;
33162;SDS011;29282;45.656;11.302;2023-04-25T08:30:36;10.07;;;2.28;;
33162;SDS011;29282;45.656;11.302;2023-04-25T08:33:01;9.88;;;1.95;;
33162;SDS011;29282;45.656;11.302;2023-04-25T08:35:27;8.95;;;1.90;;
33162;SDS011;29282;45.656;11.302;2023-04-25T08:37:53;7.55;;;1.90;;
33162;SDS011;29282;45.656;11.302;2023-04-25T08:40:19;4.60;;;1.55;;
33162;SDS011;29282;45.656;11.302;2023-04-25T08:42:51;4.15;;;1.90;;
33162;SDS011;29282;45.656;11.302;2023-04-25T08:45:18;5.82;;;1.80;;
33162;SDS011;29282;45.656;11.302;2023-04-25T08:47:45;7.47;;;2.03;;
33162;SDS011;29282;45.656;11.302;2023-04-25T08:50:10;5.68;;;2.15;;
33162;SDS011;29282;45.656;11.302;2023-04-25T08:52:37;7.82;;;2.15;;
33162;SDS011;29282;45.656;11.302;2023-04-25T08:55:08;5.80;;;1.98;;
33162;SDS011;29282;45.656;11.302;2023-04-25T08:57:34;7.55;;;2.17;;
33162;SDS011;29282;45.656;11.302;2023-04-25T09:00:01;5.25;;;1.88;;
33162;SDS011;29282;45.656;11.302;2023-04-25T09:02:28;4.10;;;1.73;;
33162;SDS011;29282;45.656;11.302;2023-04-25T09:04:54;3.20;;;1.70;;
33162;SDS011;29282;45.656;11.302;2023-04-25T09:07:21;4.70;;;1.88;;
33162;SDS011;29282;45.656;11.302;2023-04-25T09:09:46;4.90;;;2.05;;
33162;SDS011;29282;45.656;11.302;2023-04-25T09:12:12;4.78;;;1.52;;
33162;SDS011;29282;45.656;11.302;2023-04-25T09:14:38;5.13;;;1.90;;
33162;SDS011;29282;45.656;11.302;2023-04-25T09:17:04;9.20;;;1.98;;
33162;SDS011;29282;45.656;11.302;2023-04-25T09:19:33;6.50;;;1.90;;
33162;SDS011;29282;45.656;11.302;2023-04-25T09:22:02;7.18;;;1.75;;
33162;SDS011;29282;45.656;11.302;2023-04-25T09:24:38;3.63;;;1.67;;
33162;SDS011;29282;45.656;11.302;2023-04-25T09:27:07;10.93;;;2.00;;
33162;SDS011;29282;45.656;11.302;2023-04-25T09:29:35;4.35;;;1.80;;
33162;SDS011;29282;45.656;11.302;2023-04-25T09:32:17;7.50;;;1.70;;
33162;SDS011;29282;45.656;11.302;2023-04-25T09:34:54;9.77;;;1.67;;
33162;SDS011;29282;45.656;11.302;2023-04-25T09:37:21;3.37;;;1.60;;
33162;SDS011;29282;45.656;11.302;2023-04-25T09:39:59;6.40;;;2.00;;
33162;SDS011;29282;45.656;11.302;2023-04-25T09:42:28;3.78;;;1.92;;
33162;SDS011;29282;45.656;11.302;2023-04-25T09:44:56;4.35;;;1.63;;
33162;SDS011;29282;45.656;11.302;2023-04-25T09:47:24;5.35;;;1.70;;
33162;SDS011;29282;45.656;11.302;2023-04-25T09:49:52;5.47;;;1.60;;
33162;SDS011;29282;45.656;11.302;2023-04-25T09:52:27;5.60;;;1.70;;
33162;SDS011;29282;45.656;11.302;2023-04-25T09:54:53;5.95;;;1.70;;
33162;SDS011;29282;45.656;11.302;2023-04-25T09:57:19;3.35;;;1.63;;
33162;SDS011;29282;45.656;11.302;2023-04-25T10:02:18;4.15;;;1.70;;
33162;SDS011;29282;45.656;11.302;2023-04-25T10:04:47;3.78;;;1.50;;
33162;SDS011;29282;45.656;11.302;2023-04-25T10:07:13;6.85;;;1.98;;
33162;SDS011;29282;45.656;11.302;2023-04-25T10:09:39;1.95;;;1.42;;
33162;SDS011;29282;45.656;11.302;2023-04-25T10:12:05;3.70;;;1.80;;
33162;SDS011;29282;45.656;11.302;2023-04-25T10:14:32;3.15;;;1.52;;
33162;SDS011;29282;45.656;11.302;2023-04-25T10:16:59;2.55;;;1.60;;
33162;SDS011;29282;45.656;11.302;2023-04-25T10:19:25;3.45;;;1.50;;
33162;SDS011;29282;45.656;11.302;2023-04-25T10:21:52;2.13;;;1.52;;
33162;SDS011;29282;45.656;11.302;2023-04-25T10:24:31;3.50;;;1.48;;
33162;SDS011;29282;45.656;11.302;2023-04-25T10:26:57;5.82;;;1.50;;
33162;SDS011;29282;45.656;11.302;2023-04-25T10:29:26;1.63;;;1.30;;
33162;SDS011;29282;45.656;11.302;2023-04-25T10:31:52;3.30;;;1.40;;
33162;SDS011;29282;45.656;11.302;2023-04-25T10:34:18;5.13;;;1.63;;
33162;SDS011;29282;45.656;11.302;2023-04-25T10:36:51;4.15;;;1.60;;
33162;SDS011;29282;45.656;11.302;2023-04-25T10:39:22;3.03;;;1.50;;
33162;SDS011;29282;45.656;11.302;2023-04-25T10:41:53;1.90;;;1.63;;
33162;SDS011;29282;45.656;11.302;2023-04-25T10:44:26;3.72;;;1.50;;
33162;SDS011;29282;45.656;11.302;2023-04-25T10:46:54;1.75;;;1.40;;
33162;SDS011;29282;45.656;11.302;2023-04-25T10:49:42;3.05;;;1.65;;
33162;SDS011;29282;45.656;11.302;2023-04-25T10:52:26;1.38;;;1.27;;
33162;SDS011;29282;45.656;11.302;2023-04-25T10:57:25;1.60;;;1.48;;
33162;SDS011;29282;45.656;11.302;2023-04-25T11:02:48;3.38;;;2.05;;
33162;SDS011;29282;45.656;11.302;2023-04-25T11:05:20;3.00;;;1.75;;
33162;SDS011;29282;45.656;11.302;2023-04-25T11:10:17;2.42;;;1.67;;
33162;SDS011;29282;45.656;11.302;2023-04-25T11:12:43;2.25;;;1.60;;
33162;SDS011;29282;45.656;11.302;2023-04-25T11:15:11;5.53;;;1.90;;
33162;SDS011;29282;45.656;11.302;2023-04-25T11:17:36;3.83;;;1.60;;
33162;SDS011;29282;45.656;11.302;2023-04-25T11:20:02;2.45;;;1.63;;
33162;SDS011;29282;45.656;11.302;2023-04-25T11:22:32;4.28;;;1.75;;
33162;SDS011;29282;45.656;11.302;2023-04-25T11:25:00;1.52;;;1.40;;
33162;SDS011;29282;45.656;11.302;2023-04-25T11:27:30;1.65;;;1.55;;
33162;SDS011;29282;45.656;11.302;2023-04-25T11:29:55;3.72;;;1.52;;
33162;SDS011;29282;45.656;11.302;2023-04-25T11:32:21;2.92;;;1.73;;
33162;SDS011;29282;45.656;11.302;2023-04-25T11:34:46;3.67;;;2.00;;
33162;SDS011;29282;45.656;11.302;2023-04-25T11:37:12;5.82;;;1.80;;
33162;SDS011;29282;45.656;11.302;2023-04-25T11:39:42;3.05;;;1.30;;
33162;SDS011;29282;45.656;11.302;2023-04-25T11:42:08;6.43;;;1.83;;
33162;SDS011;29282;45.656;11.302;2023-04-25T11:44:34;3.65;;;1.50;;
33162;SDS011;29282;45.656;11.302;2023-04-25T11:46:59;5.65;;;1.90;;
33162;SDS011;29282;45.656;11.302;2023-04-25T11:49:25;3.00;;;1.70;;
33162;SDS011;29282;45.656;11.302;2023-04-25T11:51:55;4.32;;;1.50;;
33162;SDS011;29282;45.656;11.302;2023-04-25T11:54:21;11.68;;;1.40;;
33162;SDS011;29282;45.656;11.302;2023-04-25T11:56:48;1.83;;;1.40;;
33162;SDS011;29282;45.656;11.302;2023-04-25T11:59:13;2.60;;;1.50;;
33162;SDS011;29282;45.656;11.302;2023-04-25T12:01:46;4.70;;;1.75;;
33162;SDS011;29282;45.656;11.302;2023-04-25T12:04:14;5.65;;;1.45;;
33162;SDS011;29282;45.656;11.302;2023-04-25T12:06:42;1.65;;;1.48;;
33162;SDS011;29282;45.656;11.302;2023-04-25T12:09:12;2.75;;;1.58;;
33162;SDS011;29282;45.656;11.302;2023-04-25T12:12:01;2.58;;;1.52;;
33162;SDS011;29282;45.656;11.302;2023-04-25T12:14:31;4.57;;;1.40;;
33162;SDS011;29282;45.656;11.302;2023-04-25T12:16:59;5.22;;;1.52;;
33162;SDS011;29282;45.656;11.302;2023-04-25T12:19:26;3.95;;;1.40;;
33162;SDS011;29282;45.656;11.302;2023-04-25T12:21:58;3.53;;;1.20;;
33162;SDS011;29282;45.656;11.302;2023-04-25T12:24:26;3.20;;;1.27;;
33162;SDS011;29282;45.656;11.302;2023-04-25T12:26:53;2.35;;;1.33;;
33162;SDS011;29282;45.656;11.302;2023-04-25T12:29:24;2.28;;;1.50;;
33162;SDS011;29282;45.656;11.302;2023-04-25T12:31:51;5.10;;;1.25;;
33162;SDS011;29282;45.656;11.302;2023-04-25T12:34:18;1.73;;;1.42;;
33162;SDS011;29282;45.656;11.302;2023-04-25T12:36:45;3.92;;;1.58;;
33162;SDS011;29282;45.656;11.302;2023-04-25T12:39:18;2.67;;;1.17;;
33162;SDS011;29282;45.656;11.302;2023-04-25T12:41:45;4.38;;;1.30;;
33162;SDS011;29282;45.656;11.302;2023-04-25T12:44:11;2.45;;;1.20;;
33162;SDS011;29282;45.656;11.302;2023-04-25T12:46:37;3.10;;;1.58;;
33162;SDS011;29282;45.656;11.302;2023-04-25T12:49:03;2.15;;;1.40;;
33162;SDS011;29282;45.656;11.302;2023-04-25T12:51:29;4.20;;;1.27;;
33162;SDS011;29282;45.656;11.302;2023-04-25T12:53:55;2.03;;;1.40;;
33162;SDS011;29282;45.656;11.302;2023-04-25T12:56:21;2.53;;;1.23;;
33162;SDS011;29282;45.656;11.302;2023-04-25T12:58:46;4.25;;;1.38;;
33162;SDS011;29282;45.656;11.302;2023-04-25T13:01:13;3.45;;;1.30;;
33162;SDS011;29282;45.656;11.302;2023-04-25T13:03:39;3.10;;;1.33;;
33162;SDS011;29282;45.656;11.302;2023-04-25T13:06:05;2.03;;;1.45;;
33162;SDS011;29282;45.656;11.302;2023-04-25T13:08:31;2.90;;;1.70;;
33162;SDS011;29282;45.656;11.302;2023-04-25T13:10:57;2.75;;;1.30;;
33162;SDS011;29282;45.656;11.302;2023-04-25T13:13:22;3.08;;;1.40;;
33162;SDS011;29282;45.656;11.302;2023-04-25T13:15:48;2.20;;;1.50;;
33162;SDS011;29282;45.656;11.302;2023-04-25T13:18:14;2.05;;;1.20;;
33162;SDS011;29282;45.656;11.302;2023-04-25T13:20:40;1.52;;;1.20;;
33162;SDS011;29282;45.656;11.302;2023-04-25T13:23:05;2.60;;;1.40;;
33162;SDS011;29282;45.656;11.302;2023-04-25T13:25:31;1.30;;;1.20;;
33162;SDS011;29282;45.656;11.302;2023-04-25T13:27:56;2.10;;;1.40;;
33162;SDS011;29282;45.656;11.302;2023-04-25T13:30:22;2.45;;;1.23;;
33162;SDS011;29282;45.656;11.302;2023-04-25T13:32:47;4.45;;;1.50;;
33162;SDS011;29282;45.656;11.302;2023-04-25T13:35:13;3.10;;;1.38;;
33162;SDS011;29282;45.656;11.302;2023-04-25T13:37:39;3.97;;;1.50;;
33162;SDS011;29282;45.656;11.302;2023-04-25T13:40:06;2.75;;;1.30;;
33162;SDS011;29282;45.656;11.302;2023-04-25T13:42:34;2.67;;;1.40;;
33162;SDS011;29282;45.656;11.302;2023-04-25T13:45:00;1.40;;;1.27;;
33162;SDS011;29282;45.656;11.302;2023-04-25T13:47:26;7.15;;;1.70;;
33162;SDS011;29282;45.656;11.302;2023-04-25T13:49:53;1.73;;;1.30;;
33162;SDS011;29282;45.656;11.302;2023-04-25T13:52:18;2.22;;;1.23;;
33162;SDS011;29282;45.656;11.302;2023-04-25T13:54:44;1.90;;;1.23;;
33162;SDS011;29282;45.656;11.302;2023-04-25T13:57:09;3.47;;;1.48;;
33162;SDS011;29282;45.656;11.302;2023-04-25T13:59:36;4.05;;;1.50;;
33162;SDS011;29282;45.656;11.302;2023-04-25T14:02:01;3.60;;;1.30;;
33162;SDS011;29282;45.656;11.302;2023-04-25T14:04:27;3.05;;;1.33;;
33162;SDS011;29282;45.656;11.302;2023-04-25T14:06:53;4.18;;;1.60;;
33162;SDS011;29282;45.656;11.302;2023-04-25T14:09:19;1.70;;;1.30;;
33162;SDS011;29282;45.656;11.302;2023-04-25T14:11:46;3.42;;;1.60;;
33162;SDS011;29282;45.656;11.302;2023-04-25T14:14:11;5.90;;;1.33;;
33162;SDS011;29282;45.656;11.302;2023-04-25T14:16:38;5.63;;;1.80;;
33162;SDS011;29282;45.656;11.302;2023-04-25T14:19:04;7.53;;;1.70;;
33162;SDS011;29282;45.656;11.302;2023-04-25T14:21:29;7.97;;;1.65;;
33162;SDS011;29282;45.656;11.302;2023-04-25T14:23:57;1.67;;;1.30;;
33162;SDS011;29282;45.656;11.302;2023-04-25T14:26:22;1.88;;;1.50;;
33162;SDS011;29282;45.656;11.302;2023-04-25T14:28:48;4.88;;;1.70;;
33162;SDS011;29282;45.656;11.302;2023-04-25T14:31:14;2.83;;;1.45;;
33162;SDS011;29282;45.656;11.302;2023-04-25T14:33:39;2.83;;;1.40;;
33162;SDS011;29282;45.656;11.302;2023-04-25T14:36:07;1.90;;;1.27;;
33162;SDS011;29282;45.656;11.302;2023-04-25T14:38:33;2.25;;;1.40;;
33162;SDS011;29282;45.656;11.302;2023-04-25T14:40:58;5.20;;;1.50;;